This is the latest recevied weather packets stored in our database for station/object LZ0VRC-10. If no packets are shown the sender has not sent any weather packets the latest 10 day(s).
| Time | Temp. | Humidity | Pressure | Rain* | Wind** | Luminosity | Snow |
|---|---|---|---|---|---|---|---|
| 1777104828 | 20.56° C | 33% | 1016.8 hPa | - | - | - | - |
| 1777104824 | 20.56° C | 33% | 1016.8 hPa | - | - | - | - |
| 1777103928 | 20° C | 35% | 1016.8 hPa | - | - | - | - |
| 1777103923 | 20° C | 35% | 1016.8 hPa | - | - | - | - |
| 1777103029 | 20° C | 34% | 1016.7 hPa | - | - | - | - |
| 1777103024 | 20° C | 34% | 1016.7 hPa | - | - | - | - |
| 1777102128 | 19.44° C | 36% | 1016.5 hPa | - | - | - | - |
| 1777102124 | 19.44° C | 36% | 1016.5 hPa | - | - | - | - |
| 1777101229 | 19.44° C | 35% | 1016.5 hPa | - | - | - | - |
| 1777101224 | 19.44° C | 35% | 1016.5 hPa | - | - | - | - |
| 1777100329 | 18.89° C | 37% | 1016.3 hPa | - | - | - | - |
| 1777100324 | 18.89° C | 37% | 1016.3 hPa | - | - | - | - |
| 1777099428 | 18.33° C | 38% | 1016.2 hPa | - | - | - | - |
| 1777099424 | 18.33° C | 38% | 1016.2 hPa | - | - | - | - |
| 1777098524 | 18.33° C | 34% | 1016 hPa | - | - | - | - |
| 1777097629 | 18.33° C | 35% | 1016 hPa | - | - | - | - |
| 1777097624 | 18.33° C | 35% | 1016 hPa | - | - | - | - |
| 1777096730 | 18.89° C | 35% | 1015.9 hPa | - | - | - | - |
| 1777096724 | 18.89° C | 35% | 1015.9 hPa | - | - | - | - |
| 1777095824 | 18.89° C | 35% | 1015.8 hPa | - | - | - | - |
| 1777094929 | 18.89° C | 35% | 1015.7 hPa | - | - | - | - |
| 1777094924 | 18.89° C | 35% | 1015.7 hPa | - | - | - | - |
| 1777094029 | 18.33° C | 35% | 1015.6 hPa | - | - | - | - |
| 1777094024 | 18.33° C | 35% | 1015.6 hPa | - | - | - | - |
| 1777093124 | 15.56° C | 40% | 1015.6 hPa | - | - | - | - |
* Rain since midnight (hover to see other rain measurements)
** Current wind speed in m/s (hover to see current wind gust speed)